Details From LEXJ - Santander
To LECO - A Coruna
Flight Number -
Tags generated
Created
Modified
Stats Distance 199 nm / 369 km
Max Altitude 22,400 ft / 6,828 m
Waypoints 3
Social Downloads 2
Likes 0
Share VATSIM

Download

Looking for another format? Having issues loading an existing format? Contact us
Advertisement - Login to hide

Notes

Basic altitude profile: - Ascent Rate: 2500ft/min - Ascent Speed: 250kts - Cruise Altitude: 35000ft - Cruise Speed: 420kts - Descent Rate: 1500ft/min - Descent Speed: 250kts Options: - Use NATs: yes - Use PACOTS: yes - Use low airways: yes - Use high airways: yes

Route

LEXJ RATPO LECO

ID Type Via Altitude Latitude Longitude Leg Dist Tot Dist Heading (true) Name
O LEXJ APT - 0 ft / 0 m 43.42719˚ -3.82047˚ - 0 nm - Santander
RATPO FIX - 22,400 ft / 6,828 m 43.31711˚ -5.98170˚ 94 nm 94 nm 267° / 265° -
O LECO APT - 0 ft / 0 m 43.30226˚ -8.37709˚ 104 nm 199 nm 270° / 269° A Coruna

Altitude Profile

Advertisement - Login to hide

Weather


0- 5 10 15 20 25 30 35+ Temperature / ° C

Clouds and Precipitation
Forecast for 2017-12-16 18:00 UTC. Updated 18 minutes ago

Ground ~20,000 ft ~40,000 ft Winds

LEXJ

Details ICAO LEXJ (SDR)
Name Santander
Region Spain
Timezone Europe/Madrid (UTC+1.0)
Stats Elevation 16 ft / 5 m (AMSL)
Location 43.427188° -3.820470°
Runways 1
Magnetic Variation 0.912° W

METAR

LEXJ 161730Z 24003KT 210V270 9999 FEW032TCU BKN050 08/05 Q1027

Decode

TAF

TAF LEXJ 161400Z 1615/1715 35010KT 9999 SCT030 BKN050 TX10/1615Z TN07/1703Z BECMG 1619/1622 VRB05KT TEMPO 1615/1715 4000 RA

Decode

Departure Runways

ID Width Length Bearing (true) Bearing (mag) Surface Threshold Offset Overrun Length
11 148 ft / 45 m 7,597 ft / 2,316 m 110.20° 111.11° Asphalt 0 ft / 0 m 98 ft / 30 m
29 148 ft / 45 m 7,597 ft / 2,316 m 290.22° 291.13° Asphalt 0 ft / 0 m 0 ft / 0 m

LECO

Details ICAO LECO (LCG)
Name A Coruna
Region Spain
Timezone Europe/Madrid (UTC+1.0)
Stats Elevation 323 ft / 98 m (AMSL)
Location 43.302264° -8.377086°
Runways 1
Magnetic Variation 2.391° W

METAR

LECO 161730Z 00000KT 9999 FEW048 08/06 Q1029 NOSIG

Decode

TAF

TAF LECO 161400Z 1615/1715 VRB05KT 9999 SCT030 TX12/1615Z TN02/1706Z

Decode

Destination Runways

ID Width Length Bearing (true) Bearing (mag) Surface Threshold Offset Overrun Length
04 148 ft / 45 m 6,371 ft / 1,942 m 30.94° 33.33° Asphalt 0 ft / 0 m 194 ft / 59 m
22 148 ft / 45 m 6,371 ft / 1,942 m 210.94° 213.33° Asphalt 0 ft / 0 m 203 ft / 62 m

Approach Navaids

Runway Type Ident Frequency Range Bearing (true) Bearing (mag) Slope Elevation
22 Localiser LCO 109.90 MHz 18 nm / 33 km 210.89° 213.28° - 329 ft / 100 m (AMSL)
22 Glidescope LCO 109.90 MHz 10 nm / 19 km 210.94° 213.33° 3.00° 323 ft / 98 m (AMSL)
22 DME LCO 109.90 MHz 18 nm / 33 km - - - 293 ft / 89 m (AMSL)

Popular Alternatives